sensor_id;sensor_type;location;lat;lon;timestamp;pressure;altitude;pressure_sealevel;temperature;humidity
27958;BME280;15295;42.658;23.374;2023-11-19T00:02:15;94528.69;;;8.09;48.66
27958;BME280;15295;42.658;23.374;2023-11-19T00:04:40;94527.94;;;8.08;48.68
27958;BME280;15295;42.658;23.374;2023-11-19T00:07:06;94532.16;;;8.02;49.00
27958;BME280;15295;42.658;23.374;2023-11-19T00:09:35;94499.47;;;7.88;48.79
27958;BME280;15295;42.658;23.374;2023-11-19T00:12:03;94493.19;;;7.80;48.69
27958;BME280;15295;42.658;23.374;2023-11-19T00:14:30;94523.25;;;8.02;48.57
27958;BME280;15295;42.658;23.374;2023-11-19T00:16:55;94524.00;;;7.99;48.70
27958;BME280;15295;42.658;23.374;2023-11-19T00:19:22;94526.75;;;8.06;48.88
27958;BME280;15295;42.658;23.374;2023-11-19T00:21:48;94537.63;;;8.06;48.67
27958;BME280;15295;42.658;23.374;2023-11-19T00:24:13;94499.47;;;7.88;48.39
27958;BME280;15295;42.658;23.374;2023-11-19T00:26:41;94518.59;;;8.06;48.43
27958;BME280;15295;42.658;23.374;2023-11-19T00:29:07;94522.91;;;8.14;48.42
27958;BME280;15295;42.658;23.374;2023-11-19T00:31:33;94535.31;;;8.15;48.38
27958;BME280;15295;42.658;23.374;2023-11-19T00:33:58;94518.53;;;7.95;48.31
27958;BME280;15295;42.658;23.374;2023-11-19T00:36:24;94522.50;;;8.12;48.16
27958;BME280;15295;42.658;23.374;2023-11-19T00:38:50;94518.59;;;8.09;48.43
27958;BME280;15295;42.658;23.374;2023-11-19T00:41:18;94533.81;;;8.21;48.31
27958;BME280;15295;42.658;23.374;2023-11-19T00:43:43;94524.03;;;8.06;48.32
27958;BME280;15295;42.658;23.374;2023-11-19T00:46:09;94517.00;;;8.01;48.34
27958;BME280;15295;42.658;23.374;2023-11-19T00:48:37;94556.75;;;8.16;48.07
27958;BME280;15295;42.658;23.374;2023-11-19T00:51:06;94548.19;;;8.14;48.29
27958;BME280;15295;42.658;23.374;2023-11-19T00:53:35;94546.25;;;8.18;48.17
27958;BME280;15295;42.658;23.374;2023-11-19T00:56:01;94491.25;;;7.81;48.27
27958;BME280;15295;42.658;23.374;2023-11-19T00:58:26;94531.03;;;8.07;48.43
27958;BME280;15295;42.658;23.374;2023-11-19T01:00:53;94538.81;;;8.08;48.50
27958;BME280;15295;42.658;23.374;2023-11-19T01:03:18;94520.09;;;7.96;48.40
27958;BME280;15295;42.658;23.374;2023-11-19T01:05:44;94536.47;;;8.03;48.43
27958;BME280;15295;42.658;23.374;2023-11-19T01:08:12;94537.59;;;7.99;48.27
27958;BME280;15295;42.658;23.374;2023-11-19T01:10:37;94539.53;;;7.98;48.66
27958;BME280;15295;42.658;23.374;2023-11-19T01:13:04;94556.34;;;8.14;48.66
27958;BME280;15295;42.658;23.374;2023-11-19T01:15:31;94551.25;;;8.13;48.58
27958;BME280;15295;42.658;23.374;2023-11-19T01:17:57;94547.38;;;8.10;48.56
27958;BME280;15295;42.658;23.374;2023-11-19T01:20:23;94550.88;;;8.11;48.57
27958;BME280;15295;42.658;23.374;2023-11-19T01:22:50;94505.28;;;7.87;48.46
27958;BME280;15295;42.658;23.374;2023-11-19T01:25:16;94544.69;;;8.17;47.93
27958;BME280;15295;42.658;23.374;2023-11-19T01:27:41;94534.53;;;8.11;48.13
27958;BME280;15295;42.658;23.374;2023-11-19T01:30:07;94534.53;;;8.11;48.18
27958;BME280;15295;42.658;23.374;2023-11-19T01:32:35;94526.34;;;8.04;48.14
27958;BME280;15295;42.658;23.374;2023-11-19T01:35:03;94537.25;;;8.04;48.25
27958;BME280;15295;42.658;23.374;2023-11-19T01:37:29;94548.53;;;8.13;48.04
27958;BME280;15295;42.658;23.374;2023-11-19T01:39:55;94546.59;;;8.10;48.24
27958;BME280;15295;42.658;23.374;2023-11-19T01:42:26;94530.19;;;7.96;48.27
27958;BME280;15295;42.658;23.374;2023-11-19T01:45:00;94546.56;;;8.03;48.16
27958;BME280;15295;42.658;23.374;2023-11-19T01:47:28;94520.81;;;7.86;48.38
27958;BME280;15295;42.658;23.374;2023-11-19T01:49:56;94539.50;;;7.91;48.18
27958;BME280;15295;42.658;23.374;2023-11-19T01:52:39;94551.16;;;7.92;48.08
27958;BME280;15295;42.658;23.374;2023-11-19T01:55:06;94548.09;;;7.97;47.95
27958;BME280;15295;42.658;23.374;2023-11-19T01:57:36;94540.22;;;7.77;48.03
27958;BME280;15295;42.658;23.374;2023-11-19T02:00:03;94556.53;;;7.77;47.94
27958;BME280;15295;42.658;23.374;2023-11-19T02:02:31;94553.09;;;7.88;47.84
27958;BME280;15295;42.658;23.374;2023-11-19T02:04:56;94499.63;;;7.51;47.76
27958;BME280;15295;42.658;23.374;2023-11-19T02:07:24;94555.78;;;7.84;47.81
27958;BME280;15295;42.658;23.374;2023-11-19T02:09:51;94537.09;;;7.79;47.64
27958;BME280;15295;42.658;23.374;2023-11-19T02:12:19;94533.09;;;7.59;48.10
27958;BME280;15295;42.658;23.374;2023-11-19T02:14:45;94532.41;;;7.72;47.53
27958;BME280;15295;42.658;23.374;2023-11-19T02:17:28;94550.69;;;7.79;47.46
27958;BME280;15295;42.658;23.374;2023-11-19T02:19:54;94555.34;;;7.78;47.68
27958;BME280;15295;42.658;23.374;2023-11-19T02:22:22;94551.88;;;7.78;47.71
27958;BME280;15295;42.658;23.374;2023-11-19T02:24:50;94556.53;;;7.77;47.47
27958;BME280;15295;42.658;23.374;2023-11-19T02:27:39;94552.56;;;7.68;47.42
27958;BME280;15295;42.658;23.374;2023-11-19T02:30:06;94565.81;;;7.73;47.41
27958;BME280;15295;42.658;23.374;2023-11-19T02:32:34;94563.91;;;7.77;47.35
27958;BME280;15295;42.658;23.374;2023-11-19T02:35:01;94551.44;;;7.72;47.20
27958;BME280;15295;42.658;23.374;2023-11-19T02:37:26;94558.06;;;7.78;47.25
27958;BME280;15295;42.658;23.374;2023-11-19T02:39:54;94548.78;;;7.79;47.44
27958;BME280;15295;42.658;23.374;2023-11-19T02:42:20;94537.88;;;7.76;47.19
27958;BME280;15295;42.658;23.374;2023-11-19T02:44:48;94544.06;;;7.76;47.02
27958;BME280;15295;42.658;23.374;2023-11-19T02:47:16;94543.31;;;7.79;47.21
27958;BME280;15295;42.658;23.374;2023-11-19T02:49:46;94516.41;;;7.64;47.13
27958;BME280;15295;42.658;23.374;2023-11-19T02:52:20;94535.84;;;7.62;47.41
27958;BME280;15295;42.658;23.374;2023-11-19T02:54:46;94554.16;;;7.69;47.48
27958;BME280;15295;42.658;23.374;2023-11-19T02:57:12;94544.00;;;7.66;47.50
27958;BME280;15295;42.658;23.374;2023-11-19T02:59:40;94534.25;;;7.61;47.64
27958;BME280;15295;42.658;23.374;2023-11-19T03:02:08;94524.50;;;7.50;47.50
27958;BME280;15295;42.658;23.374;2023-11-19T03:04:40;94531.53;;;7.54;47.65
27958;BME280;15295;42.658;23.374;2023-11-19T03:07:07;94540.50;;;7.62;47.64
27958;BME280;15295;42.658;23.374;2023-11-19T03:09:33;94539.72;;;7.61;47.57
27958;BME280;15295;42.658;23.374;2023-11-19T03:12:05;94547.91;;;7.65;47.48
27958;BME280;15295;42.658;23.374;2023-11-19T03:14:35;94549.03;;;7.57;47.71
27958;BME280;15295;42.658;23.374;2023-11-19T03:17:02;94525.97;;;7.37;47.73
27958;BME280;15295;42.658;23.374;2023-11-19T03:19:29;94561.06;;;7.56;47.60
27958;BME280;15295;42.658;23.374;2023-11-19T03:21:55;94535.34;;;7.46;47.63
27958;BME280;15295;42.658;23.374;2023-11-19T03:24:20;94529.06;;;7.39;47.86
27958;BME280;15295;42.658;23.374;2023-11-19T03:26:49;94564.50;;;7.49;48.08
27958;BME280;15295;42.658;23.374;2023-11-19T03:29:18;94543.41;;;7.36;48.26
27958;BME280;15295;42.658;23.374;2023-11-19T03:31:43;94560.66;;;7.54;48.20
27958;BME280;15295;42.658;23.374;2023-11-19T03:34:11;94556.75;;;7.55;47.78
27958;BME280;15295;42.658;23.374;2023-11-19T03:36:38;94529.88;;;7.39;48.06
27958;BME280;15295;42.658;23.374;2023-11-19T03:39:05;94558.72;;;7.54;48.12
27958;BME280;15295;42.658;23.374;2023-11-19T03:41:34;94556.41;;;7.56;48.13
27958;BME280;15295;42.658;23.374;2023-11-19T03:43:59;94561.84;;;7.56;47.91
27958;BME280;15295;42.658;23.374;2023-11-19T03:46:24;94578.19;;;7.63;47.79
27958;BME280;15295;42.658;23.374;2023-11-19T03:48:51;94571.22;;;7.66;47.59
27958;BME280;15295;42.658;23.374;2023-11-19T03:51:16;94567.63;;;7.51;47.86
27958;BME280;15295;42.658;23.374;2023-11-19T03:53:43;94568.72;;;7.43;47.71
27958;BME280;15295;42.658;23.374;2023-11-19T03:56:10;94587.91;;;7.61;47.82
27958;BME280;15295;42.658;23.374;2023-11-19T03:58:35;94586.00;;;7.68;47.70
27958;BME280;15295;42.658;23.374;2023-11-19T04:01:05;94583.63;;;7.63;47.82
27958;BME280;15295;42.658;23.374;2023-11-19T04:03:32;94592.16;;;7.62;47.92
27958;BME280;15295;42.658;23.374;2023-11-19T04:05:57;94587.44;;;7.55;47.97
27958;BME280;15295;42.658;23.374;2023-11-19T04:08:24;94569.53;;;7.51;47.96
27958;BME280;15295;42.658;23.374;2023-11-19T04:10:49;94589.44;;;7.58;47.70
27958;BME280;15295;42.658;23.374;2023-11-19T04:13:15;94587.81;;;7.50;47.98
27958;BME280;15295;42.658;23.374;2023-11-19T04:15:40;94603.03;;;7.58;47.89
27958;BME280;15295;42.658;23.374;2023-11-19T04:18:06;94605.34;;;7.56;47.93
27958;BME280;15295;42.658;23.374;2023-11-19T04:20:34;94603.75;;;7.52;48.10
27958;BME280;15295;42.658;23.374;2023-11-19T04:23:01;94576.09;;;7.43;47.83
27958;BME280;15295;42.658;23.374;2023-11-19T04:25:26;94600.25;;;7.51;48.32
27958;BME280;15295;42.658;23.374;2023-11-19T04:27:52;94587.44;;;7.55;48.12
27958;BME280;15295;42.658;23.374;2023-11-19T04:30:24;94589.34;;;7.48;47.99
27958;BME280;15295;42.658;23.374;2023-11-19T04:32:51;94599.84;;;7.49;48.17
27958;BME280;15295;42.658;23.374;2023-11-19T04:35:18;94606.47;;;7.52;48.17
27958;BME280;15295;42.658;23.374;2023-11-19T04:37:44;94584.97;;;7.33;47.97
27958;BME280;15295;42.658;23.374;2023-11-19T04:40:10;94588.91;;;7.42;48.02
27958;BME280;15295;42.658;23.374;2023-11-19T04:42:37;94575.69;;;7.37;47.86
27958;BME280;15295;42.658;23.374;2023-11-19T04:45:12;94599.84;;;7.49;47.82
27958;BME280;15295;42.658;23.374;2023-11-19T04:47:38;94613.84;;;7.51;48.04
27958;BME280;15295;42.658;23.374;2023-11-19T04:50:04;94606.88;;;7.57;47.77
27958;BME280;15295;42.658;23.374;2023-11-19T04:52:30;94604.56;;;7.59;47.68
27958;BME280;15295;42.658;23.374;2023-11-19T04:54:58;94589.63;;;7.36;47.81
27958;BME280;15295;42.658;23.374;2023-11-19T04:57:24;94603.34;;;7.50;47.61
27958;BME280;15295;42.658;23.374;2023-11-19T04:59:49;94608.09;;;7.63;47.42
27958;BME280;15295;42.658;23.374;2023-11-19T05:02:16;94606.88;;;7.57;47.21
27958;BME280;15295;42.658;23.374;2023-11-19T05:04:43;94608.00;;;7.49;47.39
27958;BME280;15295;42.658;23.374;2023-11-19T05:07:28;94605.22;;;7.42;47.42
27958;BME280;15295;42.658;23.374;2023-11-19T05:09:56;94596.94;;;7.28;47.40
27958;BME280;15295;42.658;23.374;2023-11-19T05:12:22;94641.84;;;7.55;47.50
27958;BME280;15295;42.658;23.374;2023-11-19T05:14:48;94641.84;;;7.55;47.50
27958;BME280;15295;42.658;23.374;2023-11-19T05:17:20;94637.91;;;7.49;47.32
27958;BME280;15295;42.658;23.374;2023-11-19T05:19:47;94646.53;;;7.58;47.10
27958;BME280;15295;42.658;23.374;2023-11-19T05:22:13;94641.88;;;7.59;47.02
27958;BME280;15295;42.658;23.374;2023-11-19T05:24:40;94634.44;;;7.52;47.10
27958;BME280;15295;42.658;23.374;2023-11-19T05:27:06;94630.94;;;7.52;47.08
27958;BME280;15295;42.658;23.374;2023-11-19T05:29:33;94618.47;;;7.47;47.09
27958;BME280;15295;42.658;23.374;2023-11-19T05:31:59;94630.22;;;7.58;47.25
27958;BME280;15295;42.658;23.374;2023-11-19T05:34:27;94615.34;;;7.45;46.93
27958;BME280;15295;42.658;23.374;2023-11-19T05:36:52;94636.78;;;7.54;47.02
27958;BME280;15295;42.658;23.374;2023-11-19T05:39:20;94633.66;;;7.52;46.92
27958;BME280;15295;42.658;23.374;2023-11-19T05:41:45;94639.88;;;7.52;46.99
27958;BME280;15295;42.658;23.374;2023-11-19T05:44:14;94637.91;;;7.49;46.89
27958;BME280;15295;42.658;23.374;2023-11-19T05:46:45;94645.72;;;7.54;46.98
27958;BME280;15295;42.658;23.374;2023-11-19T05:49:14;94646.50;;;7.55;47.09
27958;BME280;15295;42.658;23.374;2023-11-19T05:51:42;94640.66;;;7.53;47.08
27958;BME280;15295;42.658;23.374;2023-11-19T05:54:08;94633.69;;;7.55;47.11
27958;BME280;15295;42.658;23.374;2023-11-19T05:56:36;94624.72;;;7.51;47.09
27958;BME280;15295;42.658;23.374;2023-11-19T05:59:02;94641.81;;;7.52;47.07
27958;BME280;15295;42.658;23.374;2023-11-19T06:01:42;94645.72;;;7.54;47.15
27958;BME280;15295;42.658;23.374;2023-11-19T06:04:18;94674.84;;;7.50;47.23
27958;BME280;15295;42.658;23.374;2023-11-19T06:06:43;94667.41;;;7.44;47.25
27958;BME280;15295;42.658;23.374;2023-11-19T06:09:10;94655.66;;;7.36;47.68
27958;BME280;15295;42.658;23.374;2023-11-19T06:11:35;94658.66;;;7.24;47.58
27958;BME280;15295;42.658;23.374;2023-11-19T06:14:01;94663.38;;;7.31;47.68
27958;BME280;15295;42.658;23.374;2023-11-19T06:16:29;94661.44;;;7.31;48.06
27958;BME280;15295;42.658;23.374;2023-11-19T06:18:55;94666.13;;;7.34;47.82
27958;BME280;15295;42.658;23.374;2023-11-19T06:21:20;94657.56;;;7.32;47.74
27958;BME280;15295;42.658;23.374;2023-11-19T06:23:46;94661.50;;;7.38;47.67
27958;BME280;15295;42.658;23.374;2023-11-19T06:26:12;94658.75;;;7.35;47.94
27958;BME280;15295;42.658;23.374;2023-11-19T06:28:41;94658.38;;;7.36;47.72
27958;BME280;15295;42.658;23.374;2023-11-19T06:31:06;94648.59;;;7.28;47.51
27958;BME280;15295;42.658;23.374;2023-11-19T06:33:31;94645.88;;;7.28;47.60
27958;BME280;15295;42.658;23.374;2023-11-19T06:35:58;94670.06;;;7.40;47.49
27958;BME280;15295;42.658;23.374;2023-11-19T06:38:25;94644.34;;;7.31;47.50
27958;BME280;15295;42.658;23.374;2023-11-19T06:40:50;94668.09;;;7.37;47.50
27958;BME280;15295;42.658;23.374;2023-11-19T06:43:15;94663.41;;;7.34;47.90
27958;BME280;15295;42.658;23.374;2023-11-19T06:45:41;94677.81;;;7.38;47.63
27958;BME280;15295;42.658;23.374;2023-11-19T06:48:06;94669.66;;;7.38;47.58
27958;BME280;15295;42.658;23.374;2023-11-19T06:50:32;94660.31;;;7.36;47.49
27958;BME280;15295;42.658;23.374;2023-11-19T06:52:59;94685.44;;;7.22;47.96
27958;BME280;15295;42.658;23.374;2023-11-19T06:55:26;94653.31;;;7.31;47.66
27958;BME280;15295;42.658;23.374;2023-11-19T06:57:51;94676.66;;;7.39;47.40
27958;BME280;15295;42.658;23.374;2023-11-19T07:00:17;94670.06;;;7.40;47.42
27958;BME280;15295;42.658;23.374;2023-11-19T07:02:43;94670.50;;;7.46;47.18
27958;BME280;15295;42.658;23.374;2023-11-19T07:05:09;94657.09;;;7.23;47.19
27958;BME280;15295;42.658;23.374;2023-11-19T07:07:35;94673.44;;;7.27;47.34
27958;BME280;15295;42.658;23.374;2023-11-19T07:10:01;94670.34;;;7.28;47.44
27958;BME280;15295;42.658;23.374;2023-11-19T07:12:27;94692.63;;;7.44;47.06
27958;BME280;15295;42.658;23.374;2023-11-19T07:14:53;94682.50;;;7.41;46.81
27958;BME280;15295;42.658;23.374;2023-11-19T07:17:43;94636.31;;;7.01;46.81
27958;BME280;15295;42.658;23.374;2023-11-19T07:20:10;94705.75;;;7.35;46.85
27958;BME280;15295;42.658;23.374;2023-11-19T07:22:44;94707.06;;;7.48;47.98
27958;BME280;15295;42.658;23.374;2023-11-19T07:25:17;94695.41;;;7.51;46.52
27958;BME280;15295;42.658;23.374;2023-11-19T07:27:43;94701.63;;;7.48;46.45
27958;BME280;15295;42.658;23.374;2023-11-19T07:30:09;94718.69;;;7.49;46.64
27958;BME280;15295;42.658;23.374;2023-11-19T07:32:34;94710.94;;;7.51;46.53
27958;BME280;15295;42.658;23.374;2023-11-19T07:35:00;94727.31;;;7.54;46.24
27958;BME280;15295;42.658;23.374;2023-11-19T07:37:27;94727.63;;;7.49;46.26
27958;BME280;15295;42.658;23.374;2023-11-19T07:39:52;94734.19;;;7.45;46.33
27958;BME280;15295;42.658;23.374;2023-11-19T07:42:18;94730.84;;;7.58;46.39
27958;BME280;15295;42.658;23.374;2023-11-19T07:44:43;94739.03;;;7.62;45.85
27958;BME280;15295;42.658;23.374;2023-11-19T07:47:09;94737.44;;;7.57;45.84
27958;BME280;15295;42.658;23.374;2023-11-19T07:49:35;94712.22;;;7.60;45.82
27958;BME280;15295;42.658;23.374;2023-11-19T07:52:00;94695.09;;;7.56;45.71
27958;BME280;15295;42.658;23.374;2023-11-19T07:54:28;94728.66;;;7.74;45.50
27958;BME280;15295;42.658;23.374;2023-11-19T07:56:55;94748.81;;;7.70;45.63
27958;BME280;15295;42.658;23.374;2023-11-19T07:59:21;94732.91;;;7.72;45.38
27958;BME280;15295;42.658;23.374;2023-11-19T13:55:26;94566.69;;;15.78;29.63
27958;BME280;15295;42.658;23.374;2023-11-19T13:57:56;94533.22;;;15.27;29.93
27958;BME280;15295;42.658;23.374;2023-11-19T14:00:42;94573.59;;;15.34;30.47
27958;BME280;15295;42.658;23.374;2023-11-19T14:03:09;94572.88;;;15.14;32.73
27958;BME280;15295;42.658;23.374;2023-11-19T14:05:41;94561.13;;;15.10;32.44
27958;BME280;15295;42.658;23.374;2023-11-19T14:21:48;94539.56;;;13.64;33.02
27958;BME280;15295;42.658;23.374;2023-11-19T14:26:47;94586.25;;;13.64;33.00
27958;BME280;15295;42.658;23.374;2023-11-19T14:29:15;94593.97;;;13.46;33.10
27958;BME280;15295;42.658;23.374;2023-11-19T14:31:40;94602.78;;;13.34;33.98
27958;BME280;15295;42.658;23.374;2023-11-19T14:34:06;94607.34;;;13.17;34.28
27958;BME280;15295;42.658;23.374;2023-11-19T14:36:32;94600.09;;;13.00;34.86
27958;BME280;15295;42.658;23.374;2023-11-19T14:38:58;94588.56;;;12.82;34.77
27958;BME280;15295;42.658;23.374;2023-11-19T14:41:24;94593.38;;;12.71;35.15
27958;BME280;15295;42.658;23.374;2023-11-19T14:43:51;94591.19;;;12.59;35.40
27958;BME280;15295;42.658;23.374;2023-11-19T14:46:17;94582.66;;;12.50;37.19
27958;BME280;15295;42.658;23.374;2023-11-19T14:48:43;94591.09;;;12.66;36.97
27958;BME280;15295;42.658;23.374;2023-11-19T14:51:08;94597.41;;;12.63;36.96
27958;BME280;15295;42.658;23.374;2023-11-19T14:53:34;94603.63;;;12.67;36.49
27958;BME280;15295;42.658;23.374;2023-11-19T14:56:00;94604.03;;;12.65;36.46
27958;BME280;15295;42.658;23.374;2023-11-19T14:58:26;94607.63;;;12.59;36.49
27958;BME280;15295;42.658;23.374;2023-11-19T15:00:52;94585.47;;;12.43;36.95
27958;BME280;15295;42.658;23.374;2023-11-19T15:03:17;94599.06;;;12.53;37.67
27958;BME280;15295;42.658;23.374;2023-11-19T15:05:45;94597.88;;;12.54;36.61
27958;BME280;15295;42.658;23.374;2023-11-19T15:08:16;94599.53;;;12.45;36.42
27958;BME280;15295;42.658;23.374;2023-11-19T15:10:42;94600.44;;;12.34;36.44
27958;BME280;15295;42.658;23.374;2023-11-19T15:13:07;94613.47;;;12.23;36.47
27958;BME280;15295;42.658;23.374;2023-11-19T15:15:34;94614.38;;;12.13;36.63
27958;BME280;15295;42.658;23.374;2023-11-19T15:18:00;94626.31;;;11.89;36.96
27958;BME280;15295;42.658;23.374;2023-11-19T15:20:44;94625.19;;;11.83;37.01
27958;BME280;15295;42.658;23.374;2023-11-19T15:23:13;94624.13;;;11.70;37.24
27958;BME280;15295;42.658;23.374;2023-11-19T15:25:38;94624.16;;;11.59;38.68
27958;BME280;15295;42.658;23.374;2023-11-19T15:28:04;94627.28;;;11.65;38.40
27958;BME280;15295;42.658;23.374;2023-11-19T15:30:43;94621.88;;;11.51;38.14
27958;BME280;15295;42.658;23.374;2023-11-19T15:33:11;94604.75;;;11.43;38.51
27958;BME280;15295;42.658;23.374;2023-11-19T15:35:37;94605.56;;;11.37;38.63
27958;BME280;15295;42.658;23.374;2023-11-19T15:38:04;94611.50;;;11.28;38.67
27958;BME280;15295;42.658;23.374;2023-11-19T15:40:32;94586.59;;;11.09;39.12
27958;BME280;15295;42.658;23.374;2023-11-19T15:42:58;94597.13;;;11.10;39.05
27958;BME280;15295;42.658;23.374;2023-11-19T15:45:24;94589.75;;;11.04;38.90
27958;BME280;15295;42.658;23.374;2023-11-19T15:47:49;94596.88;;;10.87;39.03
27958;BME280;15295;42.658;23.374;2023-11-19T15:50:21;94606.66;;;10.84;39.41
27958;BME280;15295;42.658;23.374;2023-11-19T15:52:46;94601.59;;;10.83;39.42
27958;BME280;15295;42.658;23.374;2023-11-19T15:55:15;94613.66;;;10.93;39.15
27958;BME280;15295;42.658;23.374;2023-11-19T15:57:42;94597.25;;;10.89;39.36
27958;BME280;15295;42.658;23.374;2023-11-19T16:00:14;94593.75;;;10.85;39.71
27958;BME280;15295;42.658;23.374;2023-11-19T16:02:42;94603.53;;;10.82;39.78
27958;BME280;15295;42.658;23.374;2023-11-19T16:05:07;94604.72;;;10.81;39.55
27958;BME280;15295;42.658;23.374;2023-11-19T16:07:34;94624.63;;;10.82;40.62
27958;BME280;15295;42.658;23.374;2023-11-19T16:10:08;94601.19;;;10.84;41.18
27958;BME280;15295;42.658;23.374;2023-11-19T16:12:35;94603.91;;;10.88;41.85
27958;BME280;15295;42.658;23.374;2023-11-19T16:15:01;94619.09;;;10.96;41.12
27958;BME280;15295;42.658;23.374;2023-11-19T16:17:26;94631.59;;;11.01;40.72
27958;BME280;15295;42.658;23.374;2023-11-19T16:19:54;94622.19;;;11.02;40.14
27958;BME280;15295;42.658;23.374;2023-11-19T16:22:20;94620.66;;;11.01;40.06
27958;BME280;15295;42.658;23.374;2023-11-19T16:24:45;94613.25;;;10.91;39.82
27958;BME280;15295;42.658;23.374;2023-11-19T16:27:14;94608.22;;;10.85;39.82
27958;BME280;15295;42.658;23.374;2023-11-19T16:29:40;94598.47;;;10.81;39.82
27958;BME280;15295;42.658;23.374;2023-11-19T16:32:06;94596.09;;;10.90;39.92
27958;BME280;15295;42.658;23.374;2023-11-19T16:34:32;94565.31;;;10.72;39.74
27958;BME280;15295;42.658;23.374;2023-11-19T16:37:03;94574.69;;;10.74;39.73
27958;BME280;15295;42.658;23.374;2023-11-19T16:39:29;94578.56;;;10.73;39.96
27958;BME280;15295;42.658;23.374;2023-11-19T16:41:58;94587.97;;;10.72;39.75
27958;BME280;15295;42.658;23.374;2023-11-19T16:44:24;94585.66;;;10.64;39.82
27958;BME280;15295;42.658;23.374;2023-11-19T16:46:51;94582.50;;;10.72;39.87
27958;BME280;15295;42.658;23.374;2023-11-19T16:49:16;94601.19;;;10.84;39.96
27958;BME280;15295;42.658;23.374;2023-11-19T16:51:49;94606.59;;;10.99;40.29
27958;BME280;15295;42.658;23.374;2023-11-19T16:54:17;94615.91;;;11.08;39.59
27958;BME280;15295;42.658;23.374;2023-11-19T16:56:42;94626.06;;;11.11;39.14
27958;BME280;15295;42.658;23.374;2023-11-19T16:59:08;94619.38;;;11.19;39.43
27958;BME280;15295;42.658;23.374;2023-11-19T17:01:34;94638.09;;;11.21;38.92
27958;BME280;15295;42.658;23.374;2023-11-19T17:04:05;94634.59;;;11.20;39.13
27958;BME280;15295;42.658;23.374;2023-11-19T17:06:33;94627.97;;;11.18;39.11
27958;BME280;15295;42.658;23.374;2023-11-19T17:08:58;94632.25;;;11.22;39.22
27958;BME280;15295;42.658;23.374;2023-11-19T17:11:31;94615.84;;;11.19;39.25
27958;BME280;15295;42.658;23.374;2023-11-19T17:13:57;94625.19;;;11.25;39.61
27958;BME280;15295;42.658;23.374;2023-11-19T17:18:57;94623.22;;;11.25;38.85
27958;BME280;15295;42.658;23.374;2023-11-19T17:21:24;94627.91;;;11.25;38.84
27958;BME280;15295;42.658;23.374;2023-11-19T17:23:49;94609.97;;;11.24;38.86
27958;BME280;15295;42.658;23.374;2023-11-19T17:26:15;94616.56;;;11.30;38.49
27958;BME280;15295;42.658;23.374;2023-11-19T17:28:40;94620.50;;;11.29;38.62
27958;BME280;15295;42.658;23.374;2023-11-19T17:31:06;94594.41;;;11.14;38.61
27958;BME280;15295;42.658;23.374;2023-11-19T17:33:32;94603.25;;;11.32;38.33
27958;BME280;15295;42.658;23.374;2023-11-19T17:35:57;94609.09;;;11.34;38.48
27958;BME280;15295;42.658;23.374;2023-11-19T17:38:23;94610.59;;;11.45;39.32
27958;BME280;15295;42.658;23.374;2023-11-19T17:40:51;94614.50;;;11.48;39.67
27958;BME280;15295;42.658;23.374;2023-11-19T17:43:16;94608.53;;;11.60;39.34
27958;BME280;15295;42.658;23.374;2023-11-19T17:45:43;94607.34;;;11.64;39.56
27958;BME280;15295;42.658;23.374;2023-11-19T17:50:42;94592.84;;;11.64;38.52
27958;BME280;15295;42.658;23.374;2023-11-19T17:53:08;94610.38;;;11.77;38.59
27958;BME280;15295;42.658;23.374;2023-11-19T17:55:34;94606.41;;;11.85;38.24
27958;BME280;15295;42.658;23.374;2023-11-19T17:58:00;94588.53;;;11.74;37.79
27958;BME280;15295;42.658;23.374;2023-11-19T18:00:26;94602.13;;;11.84;39.55
27958;BME280;15295;42.658;23.374;2023-11-19T18:02:53;94609.97;;;11.82;37.94
27958;BME280;15295;42.658;23.374;2023-11-19T18:05:21;94604.53;;;11.75;37.29
27958;BME280;15295;42.658;23.374;2023-11-19T18:13:08;94598.47;;;11.46;38.51
27958;BME280;15295;42.658;23.374;2023-11-19T18:15:34;94599.72;;;11.35;38.00
27958;BME280;15295;42.658;23.374;2023-11-19T18:18:00;94604.03;;;11.32;38.05
27958;BME280;15295;42.658;23.374;2023-11-19T18:20:25;94606.00;;;11.32;38.19
27958;BME280;15295;42.658;23.374;2023-11-19T18:22:53;94619.25;;;11.33;38.47
27958;BME280;15295;42.658;23.374;2023-11-19T18:25:20;94618.88;;;11.35;38.32
27958;BME280;15295;42.658;23.374;2023-11-19T18:27:46;94616.16;;;11.35;37.96
27958;BME280;15295;42.658;23.374;2023-11-19T18:30:12;94607.19;;;11.31;37.37
27958;BME280;15295;42.658;23.374;2023-11-19T18:32:39;94611.88;;;11.30;37.21
27958;BME280;15295;42.658;23.374;2023-11-19T18:35:06;94618.88;;;11.31;37.35
27958;BME280;15295;42.658;23.374;2023-11-19T18:37:39;94613.44;;;11.28;37.51
27958;BME280;15295;42.658;23.374;2023-11-19T18:40:06;94620.50;;;11.29;37.44
27958;BME280;15295;42.658;23.374;2023-11-19T18:42:36;94628.69;;;11.29;37.74
27958;BME280;15295;42.658;23.374;2023-11-19T18:45:03;94626.78;;;11.22;37.79
27958;BME280;15295;42.658;23.374;2023-11-19T18:47:32;94631.09;;;11.20;37.61
27958;BME280;15295;42.658;23.374;2023-11-19T18:49:59;94618.22;;;11.13;37.62
27958;BME280;15295;42.658;23.374;2023-11-19T18:52:25;94616.66;;;11.16;38.24
27958;BME280;15295;42.658;23.374;2023-11-19T18:54:51;94620.53;;;11.22;38.06
27958;BME280;15295;42.658;23.374;2023-11-19T18:57:18;94626.75;;;11.26;38.04
27958;BME280;15295;42.658;23.374;2023-11-19T18:59:43;94624.41;;;11.24;37.95
27958;BME280;15295;42.658;23.374;2023-11-19T19:02:10;94622.06;;;11.23;38.09
27958;BME280;15295;42.658;23.374;2023-11-19T19:04:35;94618.16;;;11.24;38.04
27958;BME280;15295;42.658;23.374;2023-11-19T19:07:03;94628.69;;;11.29;38.03
27958;BME280;15295;42.658;23.374;2023-11-19T19:09:35;94627.53;;;11.26;38.05
27958;BME280;15295;42.658;23.374;2023-11-19T19:12:01;94639.59;;;11.32;37.94
27958;BME280;15295;42.658;23.374;2023-11-19T19:14:27;94640.75;;;11.38;38.38
27958;BME280;15295;42.658;23.374;2023-11-19T19:16:52;94636.81;;;11.43;38.37